Time;durP1;ratioP1;P1;durP2;ratioP2;P2;SDS_P1;SDS_P2;PMS_P1;PMS_P2;Temp;Humidity;BMP_temperature;BMP_pressure;BME280_temperature;BME280_humidity;BME280_pressure;Samples;Min_cycle;Max_cycle;Signal;HPM_P1;HPM_P2
2022/05/04 00:00:00;;;;;;;33.08;19.67;;;;;;;10.44;61.44;100759.57;1641803;86;20939;-69
2022/05/04 00:02:27;;;;;;;43.98;22.35;;;;;;;10.47;61.44;100760.58;1650902;86;21160;-69
2022/05/04 00:04:53;;;;;;;50.52;26.57;;;;;;;10.49;61.43;100761.73;1650738;86;21088;-69
2022/05/04 00:07:19;;;;;;;55.33;24.45;;;;;;;10.47;61.43;100755.25;1641471;86;21529;-69
2022/05/04 00:09:45;;;;;;;47.25;22.70;;;;;;;10.47;61.41;100760.58;1634064;86;21079;-69
2022/05/04 00:12:11;;;;;;;40.67;22.48;;;;;;;10.45;61.42;100758.55;1635402;86;21041;-69
2022/05/04 00:14:37;;;;;;;39.50;21.50;;;;;;;10.44;61.44;100761.39;1630666;86;21135;-69
2022/05/04 00:17:04;;;;;;;38.88;20.65;;;;;;;10.42;61.46;100762.87;1634817;86;21121;-69
2022/05/04 00:19:30;;;;;;;37.90;20.08;;;;;;;10.42;61.49;100764.21;1635462;87;21033;-69
2022/05/04 00:21:56;;;;;;;36.83;18.48;;;;;;;10.39;61.47;100767.20;1635101;87;20886;-69
2022/05/04 00:24:22;;;;;;;32.25;18.32;;;;;;;10.34;61.52;100768.19;1634773;86;21097;-69
2022/05/04 00:26:48;;;;;;;33.88;17.95;;;;;;;10.33;61.59;100762.52;1636581;86;21604;-69
2022/05/04 00:29:14;;;;;;;33.70;18.98;;;;;;;10.31;61.65;100771.15;1656260;86;21021;-69
2022/05/04 00:31:40;;;;;;;31.15;17.35;;;;;;;10.32;61.67;100764.83;1657626;86;21093;-69
2022/05/04 00:34:07;;;;;;;33.50;17.75;;;;;;;10.32;61.72;100761.33;1656225;86;21009;-69
2022/05/04 00:36:33;;;;;;;30.52;17.92;;;;;;;10.33;61.72;100766.52;1656114;86;21104;-69
2022/05/04 00:38:59;;;;;;;29.87;16.45;;;;;;;10.34;61.74;100766.02;1656167;86;21553;-69
2022/05/04 00:41:25;;;;;;;30.40;16.95;;;;;;;10.33;61.80;100769.67;1656086;86;21028;-69
2022/05/04 00:43:53;;;;;;;31.05;16.02;;;;;;;10.34;61.85;100769.53;1654966;86;21112;-69
2022/05/04 00:46:19;;;;;;;33.65;16.73;;;;;;;10.34;61.91;100768.19;1642814;85;21069;-69
2022/05/04 00:48:45;;;;;;;24.67;15.10;;;;;;;10.37;61.97;100770.53;1650109;86;21045;-69
2022/05/04 00:51:11;;;;;;;25.43;13.38;;;;;;;10.38;62.02;100778.02;1660903;86;21198;-69
2022/05/04 00:53:38;;;;;;;20.37;14.70;;;;;;;10.41;62.09;100776.39;1661198;86;21022;-70
2022/05/04 00:56:04;;;;;;;24.37;15.95;;;;;;;10.42;62.12;100770.03;1661299;85;21580;-69
2022/05/04 01:01:16;;;;;;;23.55;14.68;;;;;;;10.38;62.23;100774.84;1660998;86;21030;-69
2022/05/04 01:03:42;;;;;;;25.48;15.15;;;;;;;10.37;62.31;100779.87;1658754;85;21118;-69
2022/05/04 01:06:08;;;;;;;22.20;14.60;;;;;;;10.36;62.37;100778.68;1659098;86;21037;-69
2022/05/04 01:08:34;;;;;;;27.65;14.90;;;;;;;10.33;62.41;100770.52;1661286;86;20982;-69
2022/05/04 01:11:00;;;;;;;23.18;14.13;;;;;;;10.33;62.43;100773.17;1660367;86;21549;-69
2022/05/04 01:13:26;;;;;;;26.45;14.55;;;;;;;10.33;62.48;100769.18;1634613;86;21502;-69
2022/05/04 01:15:53;;;;;;;21.65;12.90;;;;;;;10.32;62.51;100771.50;1635238;86;21385;-69
2022/05/04 01:18:19;;;;;;;24.85;13.00;;;;;;;10.32;62.56;100774.16;1634705;86;21113;-69
2022/05/04 01:20:45;;;;;;;19.50;13.13;;;;;;;10.33;62.59;100779.84;1634485;86;21057;-70
2022/05/04 01:23:11;;;;;;;19.80;11.43;;;;;;;10.34;62.65;100782.86;1635275;86;21018;-69
2022/05/04 01:25:37;;;;;;;20.20;11.18;;;;;;;10.33;62.68;100779.84;1651430;86;21113;-69
2022/05/04 01:28:04;;;;;;;21.45;12.85;;;;;;;10.33;62.72;100776.34;1661317;86;21534;-69
2022/05/04 01:30:32;;;;;;;28.70;12.78;;;;;;;10.31;62.78;100781.81;1645181;85;21064;-69
2022/05/04 01:33:00;;;;;;;17.60;10.82;;;;;;;10.25;62.86;100778.95;1651719;85;21027;-69
2022/05/04 01:35:32;;;;;;;18.05;10.88;;;;;;;10.25;62.97;100781.12;1646363;84;21082;-70
2022/05/04 01:37:54;;;;;;;17.67;11.10;;;;;;;10.28;63.06;100784.80;1649669;86;21069;-69
2022/05/04 01:40:21;;;;;;;21.10;10.43;;;;;;;10.31;63.13;100783.67;1640519;86;21163;-69
2022/05/04 01:42:47;;;;;;;20.35;11.03;;;;;;;10.33;63.19;100778.51;1638496;86;21024;-69
2022/05/04 01:45:13;;;;;;;16.93;10.40;;;;;;;10.30;63.27;100777.50;1638394;86;21040;-69
2022/05/04 01:47:39;;;;;;;16.12;9.80;;;;;;;10.29;63.38;100785.15;1638658;87;21073;-69
2022/05/04 01:50:06;;;;;;;11.15;7.83;;;;;;;10.34;63.45;100782.86;1649288;86;21006;-69
2022/05/04 01:52:32;;;;;;;16.90;9.03;;;;;;;10.36;63.51;100778.19;1650994;86;21655;-69
2022/05/04 01:55:01;;;;;;;20.52;9.35;;;;;;;10.34;63.55;100780.19;1634649;86;21041;-69
2022/05/04 01:57:27;;;;;;;14.75;9.50;;;;;;;10.31;63.62;100778.34;1629204;86;21081;-69
2022/05/04 01:59:53;;;;;;;15.38;10.43;;;;;;;10.29;63.69;100781.15;1624729;86;21552;-69
2022/05/04 02:02:19;;;;;;;17.77;11.22;;;;;;;10.29;63.77;100782.48;1625217;88;21685;-69
2022/05/04 02:04:46;;;;;;;15.20;10.53;;;;;;;10.29;63.86;100781.15;1628556;86;21924;-69
2022/05/04 02:07:12;;;;;;;19.23;11.90;;;;;;;10.25;63.93;100781.12;1641509;85;21038;-69
2022/05/04 02:09:38;;;;;;;16.45;11.60;;;;;;;10.20;63.98;100774.12;1628214;86;21087;-69
2022/05/04 02:12:06;;;;;;;15.80;11.08;;;;;;;10.16;64.07;100775.42;1616803;87;21554;-69
2022/05/04 02:14:33;;;;;;;16.62;10.72;;;;;;;10.17;64.16;100772.27;1625665;86;21531;-69
2022/05/04 02:16:59;;;;;;;13.45;10.58;;;;;;;10.17;64.23;100775.73;1624906;86;21693;-69
2022/05/04 02:19:26;;;;;;;18.77;11.63;;;;;;;10.17;64.27;100778.41;1636748;86;21111;-69
2022/05/04 02:21:52;;;;;;;12.85;9.05;;;;;;;10.15;64.34;100781.73;1636847;86;21082;-69
2022/05/04 02:24:18;;;;;;;13.95;8.48;;;;;;;10.12;64.42;100774.03;1644184;85;21042;-69
2022/05/04 02:26:44;;;;;;;15.15;7.60;;;;;;;10.12;64.49;100778.03;1650376;86;21111;-69
2022/05/04 02:29:10;;;;;;;14.20;8.23;;;;;;;10.12;64.53;100775.36;1650635;86;21613;-68
2022/05/04 02:31:36;;;;;;;17.80;7.65;;;;;;;10.13;64.57;100773.05;1629231;86;21074;-69
2022/05/04 02:34:02;;;;;;;12.80;9.23;;;;;;;10.12;64.60;100774.03;1623838;88;21586;-69
2022/05/04 02:39:12;;;;;;;19.37;12.15;;;;;;;10.11;64.66;100779.01;1633020;86;21105;-69
2022/05/04 02:41:39;;;;;;;14.53;11.30;;;;;;;10.11;64.69;100779.01;1645470;86;21080;-69
2022/05/04 02:44:05;;;;;;;15.78;11.85;;;;;;;10.13;64.72;100779.70;1624206;86;21649;-69
2022/05/04 02:46:31;;;;;;;19.65;11.15;;;;;;;10.14;64.71;100782.72;1641070;86;21550;-69
2022/05/04 02:48:57;;;;;;;15.28;9.13;;;;;;;10.12;64.72;100779.36;1650931;86;21007;-69
2022/05/04 02:51:23;;;;;;;14.95;8.70;;;;;;;10.10;64.74;100782.66;1632429;86;21069;-69
2022/05/04 02:53:49;;;;;;;12.82;7.90;;;;;;;10.09;64.76;100778.84;1651558;86;21212;-69
2022/05/04 02:56:15;;;;;;;12.07;8.48;;;;;;;10.07;64.75;100784.31;1629314;86;21535;-69
2022/05/04 02:58:42;;;;;;;13.22;8.63;;;;;;;10.07;64.75;100782.14;1627142;86;21061;-69
2022/05/04 03:03:59;;;;;;;15.40;8.97;;;;;;;10.02;64.75;100784.80;1625153;86;21079;-69
2022/05/04 03:06:26;;;;;;;15.65;7.67;;;;;;;10.01;64.76;100778.28;1640061;86;22265;-69
2022/05/04 03:08:52;;;;;;;16.77;8.15;;;;;;;10.00;64.80;100779.27;1651730;86;21050;-69
2022/05/04 03:14:03;;;;;;;15.65;8.38;;;;;;;9.99;64.83;100781.62;1626028;86;21027;-69
2022/05/04 03:16:28;;;;;;;15.15;9.08;;;;;;;10.00;64.86;100775.27;1625759;86;21086;-69
2022/05/04 03:18:55;;;;;;;14.83;8.20;;;;;;;9.99;64.86;100781.62;1632227;86;21097;-69
2022/05/04 03:21:20;;;;;;;11.88;8.43;;;;;;;9.98;64.90;100778.60;1638818;86;20965;-69
2022/05/04 03:23:47;;;;;;;15.75;8.38;;;;;;;9.96;64.95;100779.23;1637843;86;20919;-69
2022/05/04 03:26:13;;;;;;;16.93;9.60;;;;;;;9.95;64.95;100785.58;1651548;86;21581;-69
2022/05/04 03:28:39;;;;;;;17.55;11.93;;;;;;;9.94;65.01;100789.23;1638150;86;21020;-69
2022/05/04 03:31:05;;;;;;;17.48;10.65;;;;;;;9.93;65.04;100784.88;1634406;86;21198;-69
2022/05/04 03:33:31;;;;;;;21.52;11.83;;;;;;;9.93;65.07;100785.72;1651593;86;21086;-69
2022/05/04 03:35:57;;;;;;;18.35;10.48;;;;;;;9.93;65.12;100788.39;1651146;86;21087;-69
2022/05/04 03:38:23;;;;;;;19.10;10.78;;;;;;;9.93;65.14;100784.88;1629383;86;21094;-69
2022/05/04 03:40:49;;;;;;;28.47;17.23;;;;;;;9.94;65.20;100787.89;1628232;86;20929;-69
2022/05/04 03:43:15;;;;;;;28.20;19.73;;;;;;;9.93;65.24;100798.20;1649591;86;21154;-69
2022/05/04 03:45:41;;;;;;;30.17;16.25;;;;;;;9.92;65.23;100802.69;1631119;85;21040;-69
2022/05/04 03:48:08;;;;;;;16.62;11.15;;;;;;;9.92;65.25;100805.88;1641189;86;20979;-69
2022/05/04 03:50:34;;;;;;;17.90;10.68;;;;;;;9.91;65.28;100800.20;1638029;86;21558;-69
2022/05/04 03:53:00;;;;;;;15.35;11.20;;;;;;;9.90;65.29;100806.52;1632956;85;21614;-69
2022/05/04 03:55:26;;;;;;;21.20;10.95;;;;;;;9.92;65.31;100800.55;1627462;86;21053;-69
2022/05/04 03:57:53;;;;;;;15.32;9.68;;;;;;;9.92;65.36;100805.88;1625669;86;21538;-69
2022/05/04 04:00:19;;;;;;;20.08;10.35;;;;;;;9.93;65.37;100810.20;1650395;86;21006;-69
2022/05/04 04:02:45;;;;;;;20.72;10.70;;;;;;;9.95;65.41;100806.89;1609870;88;21061;-69
2022/05/04 04:05:12;;;;;;;15.83;9.90;;;;;;;10.01;65.46;100808.92;1633318;86;20923;-69
2022/05/04 04:07:38;;;;;;;18.10;10.50;;;;;;;10.03;65.46;100806.93;1650964;86;21077;-69
2022/05/04 04:10:06;;;;;;;24.05;10.53;;;;;;;10.03;65.51;100809.59;1626238;86;21098;-69
2022/05/04 04:12:32;;;;;;;14.75;10.20;;;;;;;10.01;65.53;100814.26;1625615;86;21057;-69
2022/05/04 04:14:58;;;;;;;16.32;10.72;;;;;;;9.99;65.63;100818.92;1624483;86;21597;-69
2022/05/04 04:17:24;;;;;;;17.35;10.35;;;;;;;9.98;65.70;100817.23;1624826;86;21514;-69
2022/05/04 04:21:50;;;;;;;26.10;11.35;;;;;;;9.96;65.77;100813.88;1625267;86;22025;-69
2022/05/04 04:22:17;;;;;;;28.52;17.02;;;;;;;10.00;65.82;100819.23;1633939;86;21557;-69
2022/05/04 04:24:43;;;;;;;23.52;13.55;;;;;;;10.01;65.85;100825.75;1637670;86;21001;-69
2022/05/04 04:27:09;;;;;;;21.70;10.20;;;;;;;10.10;66.00;100823.16;1631041;86;21542;-69
2022/05/04 04:29:36;;;;;;;17.37;11.08;;;;;;;10.21;66.05;100826.41;1632332;86;21102;-69
2022/05/04 04:32:02;;;;;;;22.32;12.68;;;;;;;10.33;66.10;100825.16;1639552;86;21266;-69
2022/05/04 04:34:28;;;;;;;15.05;11.20;;;;;;;10.54;66.17;100827.44;1635896;86;21013;-70
2022/05/04 04:36:54;;;;;;;18.70;10.10;;;;;;;11.72;66.65;100830.77;1625953;86;21045;-69
2022/05/04 04:39:20;;;;;;;17.60;10.82;;;;;;;12.28;65.85;100823.20;1625317;86;21038;-69
2022/05/04 04:41:46;;;;;;;17.85;10.63;;;;;;;12.09;65.39;100824.92;1630136;86;21069;-69
2022/05/04 04:44:12;;;;;;;23.77;12.78;;;;;;;11.84;65.28;100831.28;1634323;86;21177;-69
2022/05/04 04:46:38;;;;;;;21.12;15.63;;;;;;;11.62;65.28;100823.89;1625920;86;20933;-69
2022/05/04 04:49:04;;;;;;;33.30;12.43;;;;;;;11.43;65.29;100825.87;1625191;86;21017;-69
2022/05/04 04:51:30;;;;;;;19.02;10.80;;;;;;;11.31;65.27;100835.22;1624675;86;20911;-69
2022/05/04 04:53:56;;;;;;;21.57;11.12;;;;;;;11.21;65.25;100841.20;1634045;86;21132;-69
2022/05/04 04:56:22;;;;;;;21.37;10.05;;;;;;;11.14;65.22;100838.01;1657979;86;21875;-70
2022/05/04 04:58:48;;;;;;;20.32;11.38;;;;;;;11.09;65.17;100834.98;1632785;86;21041;-70
2022/05/04 05:01:14;;;;;;;16.00;11.33;;;;;;;11.20;65.13;100834.67;1625144;88;21085;-69
2022/05/04 05:03:40;;;;;;;18.57;11.30;;;;;;;11.65;65.08;100836.91;1626311;86;21034;-69
2022/05/04 05:06:07;;;;;;;16.17;11.03;;;;;;;11.64;65.06;100833.43;1651599;86;21042;-70
2022/05/04 05:08:33;;;;;;;17.85;10.00;;;;;;;11.67;65.06;100836.27;1651169;86;21209;-69
2022/05/04 05:10:59;;;;;;;15.78;9.13;;;;;;;11.68;65.02;100833.41;1633406;86;21051;-69
2022/05/04 05:13:25;;;;;;;18.15;9.83;;;;;;;12.08;64.95;100833.09;1623761;88;20934;-69
2022/05/04 05:16:08;;;;;;;14.28;9.40;;;;;;;12.29;64.86;100827.55;1625004;86;21602;-70
2022/05/04 05:18:36;;;;;;;12.88;8.98;;;;;;;12.29;64.74;100823.54;1641997;86;21129;-70
2022/05/04 05:21:02;;;;;;;23.07;9.80;;;;;;;12.40;64.62;100827.20;1632510;86;21559;-69
2022/05/04 05:23:28;;;;;;;20.10;9.98;;;;;;;12.39;64.51;100833.54;1647464;86;20998;-69
2022/05/04 05:25:54;;;;;;;16.57;10.03;;;;;;;12.41;64.39;100828.88;1633408;86;21645;-70
2022/05/04 05:28:21;;;;;;;22.60;9.18;;;;;;;12.43;64.30;100834.03;1638571;86;21053;-69
2022/05/04 05:30:47;;;;;;;20.92;10.20;;;;;;;12.44;64.17;100829.86;1629670;86;21022;-70
2022/05/04 05:33:14;;;;;;;16.32;9.55;;;;;;;12.69;64.05;100829.78;1630452;86;21661;-70
2022/05/04 05:35:40;;;;;;;16.50;8.75;;;;;;;13.34;64.03;100823.11;1640413;86;21638;-70
2022/05/04 05:38:08;;;;;;;12.60;9.18;;;;;;;13.88;63.63;100828.41;1639095;85;21019;-70
2022/05/04 05:40:34;;;;;;;16.00;9.83;;;;;;;14.41;63.45;100825.58;1636682;86;21026;-70
2022/05/04 05:43:00;;;;;;;18.92;10.25;;;;;;;14.99;63.09;100829.23;1639599;86;20983;-70
2022/05/04 05:45:26;;;;;;;14.43;8.80;;;;;;;15.39;62.56;100835.39;1638565;86;21146;-70
2022/05/04 05:47:52;;;;;;;13.55;10.13;;;;;;;15.29;61.93;100833.53;1637993;86;21027;-70
2022/05/04 05:50:18;;;;;;;16.48;10.05;;;;;;;14.95;61.57;100838.70;1642823;86;21113;-70
2022/05/04 05:52:44;;;;;;;13.20;9.03;;;;;;;14.70;61.34;100830.13;1641824;85;20891;-70
2022/05/04 05:55:10;;;;;;;13.85;9.25;;;;;;;14.57;61.07;100827.73;1635968;86;21102;-70
2022/05/04 05:57:36;;;;;;;14.35;9.33;;;;;;;15.03;60.74;100829.69;1631107;86;21177;-71
2022/05/04 06:00:04;;;;;;;23.42;10.35;;;;;;;15.44;60.37;100838.36;1626088;86;21053;-70
2022/05/04 06:02:30;;;;;;;13.75;9.13;;;;;;;15.62;59.99;100841.16;1625873;86;21102;-70
2022/05/04 06:04:56;;;;;;;14.78;10.08;;;;;;;15.81;59.68;100840.49;1628705;86;20903;-70
2022/05/04 06:07:22;;;;;;;12.10;8.05;;;;;;;15.92;59.22;100844.84;1635509;86;21578;-70
2022/05/04 06:09:48;;;;;;;9.83;8.05;;;;;;;15.88;58.87;100838.69;1635441;86;21921;-70
2022/05/04 06:12:14;;;;;;;14.20;8.60;;;;;;;15.88;58.46;100838.69;1654197;86;21035;-70
2022/05/04 06:14:40;;;;;;;12.65;8.50;;;;;;;15.80;58.00;100845.54;1629262;87;21011;-70
2022/05/04 06:17:07;;;;;;;17.40;8.78;;;;;;;15.56;57.69;100841.89;1635491;86;21029;-70
2022/05/04 06:19:33;;;;;;;10.78;7.78;;;;;;;15.51;57.34;100844.34;1643350;86;21577;-70
2022/05/04 06:21:59;;;;;;;12.18;9.23;;;;;;;15.44;57.12;100845.08;1631701;86;21554;-70
2022/05/04 06:24:27;;;;;;;11.03;8.25;;;;;;;15.79;57.00;100851.97;1644514;86;21005;-70
2022/05/04 06:26:53;;;;;;;12.80;8.38;;;;;;;16.07;56.68;100848.80;1624897;86;21634;-70
2022/05/04 06:29:19;;;;;;;11.28;8.35;;;;;;;16.22;56.42;100849.52;1625016;86;21018;-70
2022/05/04 06:34:22;;;;;;;14.25;9.15;;;;;;;16.23;55.88;100851.20;1512355;92;21626;-70
2022/05/04 06:36:48;;;;;;;19.23;8.40;;;;;;;16.30;55.75;100844.00;1636306;86;21572;-70
2022/05/04 06:39:15;;;;;;;17.85;8.58;;;;;;;16.37;55.56;100850.27;1650458;86;21511;-71
2022/05/04 06:41:41;;;;;;;11.00;7.97;;;;;;;16.37;55.33;100848.92;1651094;86;21145;-71
2022/05/04 06:44:08;;;;;;;12.75;8.38;;;;;;;16.74;55.24;100844.22;1627074;86;21110;-71
2022/05/04 06:46:36;;;;;;;13.32;7.70;;;;;;;17.07;54.98;100853.27;1628244;86;21700;-70
2022/05/04 06:49:03;;;;;;;12.28;8.38;;;;;;;17.20;54.55;100849.82;1650589;86;21063;-71
2022/05/04 06:51:29;;;;;;;13.70;8.30;;;;;;;17.45;54.44;100849.05;1649780;86;21077;-71
2022/05/04 06:53:55;;;;;;;12.55;8.90;;;;;;;17.66;54.13;100854.83;1649733;85;21033;-70
2022/05/04 06:56:21;;;;;;;9.88;7.90;;;;;;;17.73;53.84;100846.77;1635047;86;20968;-70
2022/05/04 06:58:47;;;;;;;12.47;8.75;;;;;;;17.84;53.56;100848.84;1625043;86;21819;-70
2022/05/04 07:01:13;;;;;;;12.45;8.23;;;;;;;18.04;53.33;100852.40;1629256;88;21515;-70
2022/05/04 07:03:39;;;;;;;13.10;7.85;;;;;;;18.26;52.94;100852.48;1642190;87;21533;-70
2022/05/04 07:06:06;;;;;;;10.98;7.95;;;;;;;18.45;52.62;100852.16;1629297;87;21522;-70
2022/05/04 07:08:33;;;;;;;18.90;9.45;;;;;;;18.51;52.23;100853.23;1644206;86;21119;-70
2022/05/04 07:11:00;;;;;;;15.43;8.58;;;;;;;18.53;51.93;100860.59;1646469;86;21983;-72
2022/05/04 07:13:27;;;;;;;12.90;8.73;;;;;;;18.43;51.67;100856.44;1637695;87;21044;-71
2022/05/04 07:15:55;;;;;;;12.60;8.48;;;;;;;18.60;51.40;100862.25;1620052;87;21097;-71
2022/05/04 07:18:21;;;;;;;12.47;8.18;;;;;;;18.73;51.10;100865.43;1620216;87;21060;-71
2022/05/04 07:20:47;;;;;;;12.75;7.83;;;;;;;18.66;50.78;100861.91;1629922;87;21064;-71
2022/05/04 07:23:13;;;;;;;10.88;8.13;;;;;;;18.65;50.55;100867.00;1635080;86;21540;-72
2022/05/04 07:25:39;;;;;;;11.55;7.45;;;;;;;18.58;50.25;100866.21;1640455;87;21012;-69
2022/05/04 07:28:06;;;;;;;11.22;7.72;;;;;;;18.57;50.13;100864.03;1636566;87;20928;-69
2022/05/04 07:30:32;;;;;;;9.95;7.72;;;;;;;18.43;49.90;100869.94;1619639;86;21072;-69
2022/05/04 07:32:58;;;;;;;15.43;8.30;;;;;;;18.53;49.70;100869.53;1629142;87;21021;-69
2022/05/04 07:35:24;;;;;;;17.60;12.37;;;;;;;18.57;49.37;100871.30;1633121;85;21259;-70
2022/05/04 07:37:50;;;;;;;12.30;9.25;;;;;;;18.52;49.08;100873.27;1626689;87;21091;-71
2022/05/04 07:43:01;;;;;;;11.63;8.60;;;;;;;18.43;48.85;100865.89;1642865;84;21083;-72
2022/05/04 07:45:27;;;;;;;14.45;9.30;;;;;;;18.76;48.78;100870.41;1645197;84;21511;-71
2022/05/04 07:47:53;;;;;;;15.10;8.90;;;;;;;18.93;48.70;100868.91;1648139;85;21927;-71
2022/05/04 07:50:20;;;;;;;9.35;7.70;;;;;;;19.06;48.44;100874.28;1638498;85;21020;-71
2022/05/04 07:52:47;;;;;;;10.50;7.40;;;;;;;19.03;48.42;100873.36;1640448;85;21484;-71
2022/05/04 07:55:13;;;;;;;11.18;7.62;;;;;;;19.21;48.19;100870.77;1644361;85;21606;-71
2022/05/04 07:57:39;;;;;;;8.75;6.83;;;;;;;19.27;47.99;100871.29;1643532;84;21807;-71
2022/05/04 08:05:37;;;;;;;13.00;7.80;;;;;;;19.04;47.17;100868.24;1654312;85;21519;-71
2022/05/04 08:08:03;;;;;;;11.20;7.65;;;;;;;19.08;47.05;100876.23;1641769;85;21070;-71
2022/05/04 08:10:31;;;;;;;13.90;8.40;;;;;;;19.03;46.87;100867.95;1640201;85;36818;-71
2022/05/04 08:12:58;;;;;;;14.60;8.25;;;;;;;19.12;46.86;100870.72;1641785;85;22006;-71
2022/05/04 08:15:25;;;;;;;9.70;6.95;;;;;;;19.28;46.70;100877.53;1636656;87;21068;-71
2022/05/04 08:17:51;;;;;;;10.80;6.33;;;;;;;19.40;46.50;100877.98;1643319;87;21088;-71
2022/05/04 08:20:18;;;;;;;9.78;6.62;;;;;;;19.39;46.18;100872.25;1621820;87;21021;-71
2022/05/04 08:22:44;;;;;;;6.92;6.00;;;;;;;19.36;45.96;100886.21;1618309;87;21072;-72
2022/05/04 08:25:10;;;;;;;11.48;7.58;;;;;;;19.26;45.62;100877.73;1628214;87;21116;-71
2022/05/04 08:27:36;;;;;;;7.37;5.55;;;;;;;19.21;45.50;100878.88;1635323;87;21486;-72
2022/05/04 08:30:04;;;;;;;12.80;6.20;;;;;;;19.52;45.55;100878.69;1624408;86;21055;-71
2022/05/04 08:32:31;;;;;;;10.20;7.12;;;;;;;19.68;45.33;100883.58;1650519;86;21052;-72
2022/05/04 08:34:58;;;;;;;11.68;6.78;;;;;;;19.61;45.04;100878.73;1659285;85;21075;-71
2022/05/04 08:37:27;;;;;;;11.03;6.92;;;;;;;19.68;45.07;100880.87;1648747;86;21720;-71
2022/05/04 08:39:53;;;;;;;12.95;6.12;;;;;;;20.01;45.00;100879.30;1648438;86;21648;-72
2022/05/04 08:42:19;;;;;;;10.18;6.92;;;;;;;20.14;44.63;100875.97;1649996;86;21501;-71
2022/05/04 08:44:47;;;;;;;9.23;5.90;;;;;;;20.07;44.43;100873.83;1644601;86;21605;-71
2022/05/04 08:47:13;;;;;;;15.93;6.00;;;;;;;20.15;44.24;100874.92;1645200;86;21081;-71
2022/05/04 08:49:41;;;;;;;8.80;5.95;;;;;;;20.09;43.99;100872.27;1635479;86;21179;-72
2022/05/04 08:52:07;;;;;;;7.97;5.47;;;;;;;19.98;43.82;100873.81;1649758;86;21487;-71
2022/05/04 08:54:34;;;;;;;7.20;6.17;;;;;;;19.78;43.53;100876.64;1650988;86;21081;-71
2022/05/04 08:57:00;;;;;;;11.15;6.42;;;;;;;19.65;43.31;100875.89;1650944;86;21065;-71
2022/05/04 08:59:28;;;;;;;10.98;6.35;;;;;;;19.63;43.34;100872.59;1656130;86;20921;-71
2022/05/04 09:01:54;;;;;;;8.10;5.62;;;;;;;19.57;43.17;100868.86;1632974;86;21474;-71
2022/05/04 09:04:21;;;;;;;11.03;5.55;;;;;;;19.72;43.13;100871.27;1626184;86;21085;-71
2022/05/04 09:06:48;;;;;;;7.95;5.53;;;;;;;19.80;43.07;100865.09;1627767;86;21132;-70
2022/05/04 09:09:14;;;;;;;12.45;5.80;;;;;;;20.03;42.85;100869.06;1646971;85;21113;-71
2022/05/04 09:11:44;;;;;;;7.20;5.03;;;;;;;20.00;42.62;100871.70;1606340;86;21069;-71
2022/05/04 09:14:14;;;;;;;8.58;5.22;;;;;;;20.01;42.37;100866.59;1639200;86;21543;-71
2022/05/04 09:16:41;;;;;;;6.47;4.83;;;;;;;19.98;42.32;100865.69;1626748;86;21148;-70
2022/05/04 09:19:11;;;;;;;8.45;5.35;;;;;;;19.99;42.11;100866.48;1629491;86;21018;-70
2022/05/04 09:21:45;;;;;;;6.15;4.97;;;;;;;19.50;41.77;100868.06;1631684;86;21100;-70
2022/05/04 09:24:07;;;;;;;8.33;5.85;;;;;;;19.07;41.81;100870.52;1640804;86;21038;-70
2022/05/04 09:26:44;;;;;;;9.25;5.70;;;;;;;18.93;41.90;100869.73;1628380;86;21150;-70
2022/05/04 09:29:12;;;;;;;5.35;4.10;;;;;;;18.87;41.87;100867.05;1634716;86;21475;-71
2022/05/04 09:31:41;;;;;;;9.30;4.67;;;;;;;18.67;41.81;100869.82;1638827;86;21512;-70
2022/05/04 09:34:08;;;;;;;7.12;4.35;;;;;;;18.32;41.73;100867.87;1640316;86;21073;-70
2022/05/04 09:45:16;;;;;;;4.25;3.55;;;;;;;18.42;41.63;100864.22;1601119;88;21532;-71
2022/05/04 09:47:46;;;;;;;5.72;3.87;;;;;;;18.62;41.44;100866.08;1622965;86;28493;-70
2022/05/04 09:50:16;;;;;;;4.70;3.42;;;;;;;18.88;41.44;100860.62;1638685;86;21042;-70
2022/05/04 09:52:49;;;;;;;6.40;4.08;;;;;;;19.11;41.37;100866.34;1628716;86;22365;-70
2022/05/04 09:55:19;;;;;;;8.05;4.15;;;;;;;19.46;41.23;100864.13;1633367;86;21078;-71
2022/05/04 09:57:46;;;;;;;9.28;4.15;;;;;;;19.67;41.08;100861.09;1638778;86;21034;-70
2022/05/04 10:00:14;;;;;;;5.40;4.40;;;;;;;19.49;40.89;100854.25;1635436;86;21045;-70
2022/05/04 10:02:41;;;;;;;5.42;3.83;;;;;;;19.18;40.84;100853.63;1645570;85;21537;-71
2022/05/04 10:05:09;;;;;;;3.47;3.17;;;;;;;18.92;40.89;100856.45;1639737;86;21207;-70
2022/05/04 10:07:36;;;;;;;5.80;3.33;;;;;;;18.78;40.87;100856.18;1617977;86;21854;-71
2022/05/04 10:10:06;;;;;;;4.17;3.47;;;;;;;18.67;40.87;100856.83;1610182;88;21055;-71
2022/05/04 10:12:37;;;;;;;7.40;3.37;;;;;;;18.59;40.78;100851.64;1619440;86;21068;-72
2022/05/04 10:15:04;;;;;;;6.35;3.67;;;;;;;18.51;40.64;100850.53;1633678;86;21093;-71
2022/05/04 10:17:31;;;;;;;5.17;3.10;;;;;;;18.41;40.59;100850.39;1630736;86;21204;-71
2022/05/04 10:20:11;;;;;;;5.42;3.25;;;;;;;18.40;40.59;100851.42;1607285;88;21136;-71
2022/05/04 10:22:44;;;;;;;5.08;3.15;;;;;;;18.36;40.53;100852.91;1656196;86;21590;-71
2022/05/04 10:25:11;;;;;;;8.98;3.62;;;;;;;18.38;40.54;100856.22;1622822;87;21048;-71
2022/05/04 10:27:41;;;;;;;7.28;3.42;;;;;;;18.38;40.56;100854.03;1633548;86;21555;-71
2022/05/04 10:33:06;;;;;;;4.35;3.33;;;;;;;18.45;40.55;100848.11;1620391;86;21102;-71
2022/05/04 10:35:44;;;;;;;6.58;3.45;;;;;;;18.37;40.49;100847.80;1600071;89;21691;-70
2022/05/04 10:38:16;;;;;;;7.58;3.62;;;;;;;18.43;40.49;100842.93;1628853;88;21050;-71
2022/05/04 10:40:47;;;;;;;4.90;3.50;;;;;;;18.64;40.51;100839.69;1635590;86;21121;-71
2022/05/04 10:43:18;;;;;;;4.40;3.20;;;;;;;18.71;40.47;100837.80;1613431;88;21153;-71
2022/05/04 10:45:47;;;;;;;3.77;2.95;;;;;;;18.84;40.44;100840.45;1650568;86;21632;-71
2022/05/04 10:48:19;;;;;;;9.58;2.92;;;;;;;18.88;40.40;100835.77;1612770;86;21392;-71
2022/05/04 10:51:02;;;;;;;12.13;4.05;;;;;;;18.85;40.27;100836.72;1640647;84;21041;-71
2022/05/04 10:53:33;;;;;;;6.42;3.25;;;;;;;18.79;40.26;100832.98;1646436;84;21114;-71
2022/05/04 10:56:07;;;;;;;4.42;3.30;;;;;;;19.11;40.31;100833.90;1621237;88;21362;-72
2022/05/04 10:58:54;;;;;;;7.58;3.27;;;;;;;19.37;40.30;100831.08;1616713;86;21662;-71
2022/05/04 11:01:32;;;;;;;14.28;3.90;;;;;;;19.56;40.34;100832.05;1612833;87;21046;-71
2022/05/04 11:04:15;;;;;;;5.45;3.30;;;;;;;19.72;40.25;100830.67;1628630;87;21140;-71
2022/05/04 11:06:44;;;;;;;4.58;3.27;;;;;;;20.06;40.33;100827.48;1639065;86;21553;-71
2022/05/04 11:09:17;;;;;;;4.65;3.52;;;;;;;19.98;40.05;100827.78;1659713;86;21787;-71
2022/05/04 11:11:45;;;;;;;4.70;3.45;;;;;;;19.63;39.75;100822.53;1657590;84;21513;-71
2022/05/04 11:14:12;;;;;;;4.20;3.00;;;;;;;19.34;39.67;100826.10;1637538;85;21378;-72
2022/05/04 11:16:39;;;;;;;12.07;3.40;;;;;;;19.47;39.64;100825.73;1629762;86;21066;-71
2022/05/04 11:19:05;;;;;;;5.42;3.42;;;;;;;19.65;39.45;100817.71;1639214;86;21088;-71
2022/05/04 11:21:33;;;;;;;2.92;2.62;;;;;;;19.68;39.25;100818.62;1647470;85;21155;-71
2022/05/04 11:24:01;;;;;;;6.60;2.95;;;;;;;19.66;39.10;100818.03;1633246;86;21079;-71
2022/05/04 11:26:42;;;;;;;7.20;2.75;;;;;;;19.43;38.98;100817.22;1630541;88;21087;-71
2022/05/04 11:29:17;;;;;;;5.55;3.10;;;;;;;19.14;38.83;100814.53;1637299;86;21087;-72
2022/05/04 11:31:54;;;;;;;7.33;2.80;;;;;;;19.03;38.85;100815.24;1603146;88;21150;-72
2022/05/04 11:34:17;;;;;;;4.17;2.95;;;;;;;19.22;38.93;100818.35;1599883;89;21222;-72
2022/05/04 11:36:45;;;;;;;8.98;3.17;;;;;;;19.53;38.75;100820.28;1596591;89;21050;-72
2022/05/04 11:39:18;;;;;;;6.40;3.30;;;;;;;19.63;38.53;100815.24;1600534;89;21051;-71
2022/05/04 11:41:51;;;;;;;5.12;2.80;;;;;;;19.84;38.51;100813.49;1600413;89;21135;-71
2022/05/04 11:44:21;;;;;;;3.98;3.20;;;;;;;20.00;38.30;100816.19;1600228;89;21039;-72
2022/05/04 11:46:47;;;;;;;;;;;;;;;20.14;38.20;100816.91;1603044;89;21195;-71
2022/05/04 11:49:13;;;;;;;4.28;2.55;;;;;;;20.26;38.09;100806.48;1622285;88;20197;-71